Time;durP1;ratioP1;P1;durP2;ratioP2;P2;SDS_P1;SDS_P2;PMS_P1;PMS_P2;Temp;Humidity;BMP_temperature;BMP_pressure;BME280_temperature;BME280_humidity;BME280_pressure;Samples;Min_cycle;Max_cycle;Signal;HPM_P1;HPM_P2
2022/09/11 00:00:22;;;;;;;8.93;2.03;;;;;;;17.26;71.06;99128.31;5226107;28;20087;-72
2022/09/11 00:03:12;;;;;;;7.07;2.03;;;;;;;17.42;69.81;99129.13;5227495;28;20075;-72
2022/09/11 00:06:05;;;;;;;2.40;1.70;;;;;;;17.59;69.84;99136.00;5241561;28;20439;-72
2022/09/11 00:08:59;;;;;;;4.43;2.00;;;;;;;17.62;69.54;99127.59;5232766;28;20059;-72
2022/09/11 00:11:49;;;;;;;4.38;1.83;;;;;;;17.35;70.41;99129.03;5233110;28;20056;-72
2022/09/11 00:14:40;;;;;;;6.82;2.35;;;;;;;17.72;68.90;99135.34;5241466;28;20055;-72
2022/09/11 00:17:30;;;;;;;4.88;2.15;;;;;;;17.83;68.02;99130.38;5255191;28;20137;-72
2022/09/11 00:20:20;;;;;;;3.67;1.80;;;;;;;17.58;68.73;99134.31;5248753;28;20079;-72
2022/09/11 00:23:10;;;;;;;5.03;2.15;;;;;;;17.13;70.35;99122.75;5227354;28;20514;-72
2022/09/11 00:26:02;;;;;;;10.38;2.00;;;;;;;17.31;69.76;99125.91;5242986;28;20048;-72
2022/09/11 00:28:52;;;;;;;4.55;1.80;;;;;;;17.61;69.34;99123.22;5232558;28;20079;-72
2022/09/11 00:31:43;;;;;;;2.97;1.98;;;;;;;17.05;70.61;99126.34;5251842;28;20059;-72
2022/09/11 00:34:33;;;;;;;4.03;1.85;;;;;;;17.07;69.85;99129.66;5242320;28;20060;-72
2022/09/11 00:37:24;;;;;;;2.60;1.60;;;;;;;17.48;68.96;99120.38;5235754;28;20458;-72
2022/09/11 00:40:15;;;;;;;4.88;2.22;;;;;;;17.38;68.87;99117.97;5224560;28;20060;-72
2022/09/11 00:43:08;;;;;;;6.72;2.35;;;;;;;17.34;69.65;99114.00;5242411;28;20335;-72
2022/09/11 00:46:03;;;;;;;3.63;1.85;;;;;;;17.56;68.17;99104.19;5246254;28;20060;-72
2022/09/11 00:48:56;;;;;;;4.03;1.90;;;;;;;17.68;67.98;99121.50;5235741;28;20071;-72
2022/09/11 00:51:52;;;;;;;8.82;1.88;;;;;;;17.61;68.05;99120.53;5241164;28;20063;-72
2022/09/11 00:54:49;;;;;;;3.50;1.90;;;;;;;17.55;68.50;99127.50;5246758;28;20126;-72
2022/09/11 00:57:45;;;;;;;7.72;2.42;;;;;;;17.22;69.94;99110.09;5245684;28;20106;-72
2022/09/11 01:00:38;;;;;;;2.65;1.70;;;;;;;17.74;68.62;99125.25;5231227;28;20059;-72
2022/09/11 01:03:30;;;;;;;3.92;1.73;;;;;;;17.49;69.16;99119.38;5245379;28;20431;-72
2022/09/11 01:06:23;;;;;;;8.88;2.33;;;;;;;17.38;70.04;99118.81;5260360;28;20059;-72
2022/09/11 01:09:13;;;;;;;6.93;1.80;;;;;;;17.90;67.84;99113.53;5224936;28;20573;-72
2022/09/11 01:12:17;;;;;;;6.55;2.30;;;;;;;17.97;67.12;99119.78;5244834;28;20564;-72
2022/09/11 01:15:25;;;;;;;5.15;2.00;;;;;;;17.47;68.75;99116.03;5247223;28;20119;-71
2022/09/11 01:18:31;;;;;;;4.95;2.03;;;;;;;17.14;69.46;99122.56;5243126;28;20518;-72
2022/09/11 01:21:34;;;;;;;6.93;2.05;;;;;;;17.16;69.92;99117.03;5231100;28;20060;-72
2022/09/11 01:24:43;;;;;;;5.47;1.92;;;;;;;17.52;68.67;99114.47;5258734;28;20201;-72
2022/09/11 01:27:43;;;;;;;9.50;2.03;;;;;;;17.78;68.17;99119.38;5234058;28;20133;-72
2022/09/11 01:30:40;;;;;;;3.60;2.15;;;;;;;17.12;70.21;99115.75;5227306;28;20075;-72
2022/09/11 01:33:54;;;;;;;4.35;2.08;;;;;;;17.33;69.63;99110.47;5243554;28;20197;-72
2022/09/11 01:36:52;;;;;;;4.22;2.30;;;;;;;17.16;70.09;99121.56;5244542;28;20056;-72
2022/09/11 01:39:52;;;;;;;7.30;2.15;;;;;;;17.53;68.92;99126.84;5228485;28;20063;-72
2022/09/11 01:42:45;;;;;;;3.97;2.22;;;;;;;17.58;68.56;99115.56;5243742;28;20045;-72
2022/09/11 01:45:39;;;;;;;3.75;2.08;;;;;;;17.21;69.69;99130.69;5245807;28;20362;-72
2022/09/11 01:48:37;;;;;;;6.72;2.40;;;;;;;17.13;70.48;99125.44;5238815;28;20056;-72
2022/09/11 01:51:31;;;;;;;6.35;2.55;;;;;;;17.64;68.35;99132.75;5229424;28;20086;-72
2022/09/11 01:54:28;;;;;;;5.13;2.60;;;;;;;17.36;69.46;99128.03;5244890;28;20051;-72
2022/09/11 01:57:35;;;;;;;4.90;2.50;;;;;;;17.42;69.64;99132.69;5243635;28;20115;-72
2022/09/11 02:00:27;;;;;;;7.78;2.63;;;;;;;17.34;69.25;99125.53;5243141;28;20083;-72
2022/09/11 02:03:26;;;;;;;5.78;2.67;;;;;;;17.52;69.53;99129.72;5244498;28;20052;-72
2022/09/11 02:06:23;;;;;;;6.43;2.63;;;;;;;17.44;69.40;99132.47;5245568;28;20494;-72
2022/09/11 02:09:19;;;;;;;5.18;2.50;;;;;;;17.70;68.26;99138.19;5231307;28;20067;-71
2022/09/11 02:12:14;;;;;;;3.90;2.60;;;;;;;17.04;70.27;99135.38;5257218;28;20048;-71
2022/09/11 02:15:04;;;;;;;4.72;2.50;;;;;;;17.05;71.34;99138.91;5243935;28;20055;-70
2022/09/11 02:18:14;;;;;;;4.82;2.22;;;;;;;17.88;67.60;99137.88;5243964;28;20071;-71
2022/09/11 02:21:05;;;;;;;6.85;2.70;;;;;;;17.76;68.07;99136.63;5247804;28;20201;-71
2022/09/11 02:23:56;;;;;;;6.40;2.50;;;;;;;17.83;68.00;99125.00;5242023;28;20353;-71
2022/09/11 02:26:51;;;;;;;3.35;2.60;;;;;;;17.88;67.58;99139.69;5257212;28;20426;-71
2022/09/11 02:29:42;;;;;;;9.98;3.22;;;;;;;17.81;67.67;99116.31;5241420;28;20060;-71
2022/09/11 02:32:35;;;;;;;9.70;2.70;;;;;;;17.27;70.04;99143.38;5242352;28;20525;-71
2022/09/11 02:35:36;;;;;;;7.00;3.10;;;;;;;17.05;71.36;99145.13;5243897;28;20094;-70
2022/09/11 02:38:35;;;;;;;4.05;2.75;;;;;;;17.41;69.48;99136.34;5238990;28;20056;-71
2022/09/11 02:41:45;;;;;;;8.43;2.85;;;;;;;17.57;68.71;99154.13;5237490;28;20410;-71
2022/09/11 02:45:13;;;;;;;8.50;3.30;;;;;;;17.33;70.00;99149.84;5229127;28;20098;-70
2022/09/11 02:48:26;;;;;;;5.10;2.83;;;;;;;16.85;71.63;99158.19;5241260;28;20056;-71
2022/09/11 02:51:40;;;;;;;11.02;3.45;;;;;;;17.64;68.67;99160.41;5242520;28;20147;-71
2022/09/11 02:54:53;;;;;;;5.70;3.00;;;;;;;16.84;71.67;99155.66;5241812;28;20067;-71
2022/09/11 02:57:53;;;;;;;5.57;2.88;;;;;;;16.81;71.43;99154.16;5233796;28;20099;-71
2022/09/11 03:00:45;;;;;;;9.27;3.40;;;;;;;17.22;71.27;99148.47;5243856;28;20336;-71
2022/09/11 03:03:41;;;;;;;6.50;3.35;;;;;;;17.59;68.94;99149.41;5243117;28;20098;-71
2022/09/11 03:06:35;;;;;;;4.90;3.10;;;;;;;17.22;70.47;99156.50;5242348;28;20597;-71
2022/09/11 03:09:25;;;;;;;6.43;3.17;;;;;;;16.83;71.54;99164.72;5229169;28;20652;-71
2022/09/11 03:12:21;;;;;;;7.25;3.10;;;;;;;17.33;70.51;99157.91;5251077;28;20079;-71
2022/09/11 03:15:14;;;;;;;10.80;3.33;;;;;;;17.06;71.73;99167.38;5228355;28;20120;-71
2022/09/11 03:18:05;;;;;;;7.32;3.22;;;;;;;17.36;70.25;99160.22;5242163;28;20074;-71
2022/09/11 03:20:55;;;;;;;5.43;3.17;;;;;;;17.14;70.66;99141.31;5227210;28;20063;-71
2022/09/11 03:23:47;;;;;;;8.60;3.65;;;;;;;17.38;70.38;99163.53;5252478;28;20047;-71
2022/09/11 03:26:37;;;;;;;5.95;3.60;;;;;;;17.07;70.92;99153.78;5242511;28;20052;-70
2022/09/11 03:29:27;;;;;;;9.48;3.50;;;;;;;17.51;69.79;99162.88;5226243;28;20059;-70
2022/09/11 03:32:21;;;;;;;7.40;3.50;;;;;;;16.94;71.99;99148.22;5238656;28;20055;-70
2022/09/11 03:35:11;;;;;;;6.18;3.45;;;;;;;17.67;69.79;99151.16;5228342;28;20045;-70
2022/09/11 03:38:02;;;;;;;10.38;4.28;;;;;;;17.38;69.81;99137.56;5241224;28;20234;-71
2022/09/11 03:40:53;;;;;;;8.13;3.38;;;;;;;17.49;69.56;99144.31;5229515;28;20424;-71
2022/09/11 03:43:44;;;;;;;9.07;4.05;;;;;;;17.32;70.88;99149.03;5255295;28;20126;-71
2022/09/11 03:46:34;;;;;;;8.20;3.42;;;;;;;17.31;70.04;99150.03;5226811;28;20529;-71
2022/09/11 03:49:24;;;;;;;9.52;3.92;;;;;;;17.58;69.85;99158.44;5230281;28;20056;-71
2022/09/11 03:52:14;;;;;;;9.10;3.55;;;;;;;17.73;69.41;99161.97;5251465;28;20054;-71
2022/09/11 03:55:05;;;;;;;5.85;3.55;;;;;;;17.69;68.26;99159.84;5241631;28;20059;-71
2022/09/11 03:57:55;;;;;;;9.02;4.10;;;;;;;17.76;69.19;99177.72;5240919;28;20557;-71
2022/09/11 04:00:47;;;;;;;9.05;4.10;;;;;;;16.59;72.74;99173.75;5237177;28;20067;-71
2022/09/11 04:03:38;;;;;;;8.07;3.90;;;;;;;16.82;72.97;99174.59;5242660;28;20123;-71
2022/09/11 04:06:34;;;;;;;10.13;5.73;;;;;;;17.47;70.08;99165.09;5228498;28;20045;-71
2022/09/11 04:09:26;;;;;;;5.28;3.92;;;;;;;17.53;69.76;99174.28;5227621;28;20068;-71
2022/09/11 04:12:18;;;;;;;8.52;4.38;;;;;;;17.18;71.05;99178.47;5238160;28;20237;-71
2022/09/11 04:15:08;;;;;;;8.40;4.20;;;;;;;16.85;72.32;99187.63;5256595;28;20052;-70
2022/09/11 04:17:59;;;;;;;12.20;5.00;;;;;;;16.56;73.53;99168.75;5255279;28;20056;-71
2022/09/11 04:20:56;;;;;;;8.50;4.38;;;;;;;16.87;71.96;99163.34;5230973;28;20051;-71
2022/09/11 04:23:50;;;;;;;7.10;4.35;;;;;;;17.25;71.27;99176.72;5259241;28;20052;-71
2022/09/11 04:26:41;;;;;;;6.40;4.65;;;;;;;17.54;69.69;99183.97;5260921;28;20541;-71
2022/09/11 04:29:39;;;;;;;7.13;4.35;;;;;;;17.72;68.55;99195.19;5229198;28;20506;-71
2022/09/11 04:32:31;;;;;;;7.68;4.60;;;;;;;17.31;70.36;99179.50;5242507;28;20123;-71
2022/09/11 04:35:22;;;;;;;8.55;4.65;;;;;;;17.49;69.95;99184.53;5247591;28;20044;-71
2022/09/11 04:38:17;;;;;;;11.48;4.47;;;;;;;17.06;71.47;99194.16;5256955;28;21606;-71
2022/09/11 04:41:09;;;;;;;8.07;4.50;;;;;;;16.81;72.35;99197.00;5264860;28;20522;-71
2022/09/11 04:44:00;;;;;;;9.95;5.05;;;;;;;17.32;70.28;99197.28;5245987;28;20048;-71
2022/09/11 04:46:55;;;;;;;7.93;5.10;;;;;;;16.66;72.76;99204.97;5245723;28;20055;-71
2022/09/11 04:49:47;;;;;;;6.68;4.72;;;;;;;16.87;72.23;99209.69;5225827;28;20134;-71
2022/09/11 04:52:38;;;;;;;8.45;5.35;;;;;;;16.21;75.12;99224.47;5257325;28;20040;-71
2022/09/11 04:55:30;;;;;;;9.77;5.10;;;;;;;16.95;73.23;99216.81;5244816;28;20411;-71
2022/09/11 04:58:21;;;;;;;11.10;5.35;;;;;;;17.42;69.92;99218.44;5226380;28;20056;-70
2022/09/11 05:01:14;;;;;;;10.55;5.03;;;;;;;17.32;70.25;99224.06;5231969;28;20056;-71
2022/09/11 05:04:07;;;;;;;9.43;5.50;;;;;;;17.10;71.21;99214.22;5236703;28;20406;-70
2022/09/11 05:06:58;;;;;;;6.75;5.45;;;;;;;17.33;70.91;99227.56;5244070;28;20056;-71
2022/09/11 05:09:48;;;;;;;9.65;4.80;;;;;;;17.40;70.79;99225.84;5245273;28;20107;-71
2022/09/11 05:12:40;;;;;;;7.78;5.03;;;;;;;17.30;70.18;99214.53;5243992;28;20051;-71
2022/09/11 05:15:31;;;;;;;9.30;5.50;;;;;;;16.91;72.71;99237.78;5231065;28;20862;-71
2022/09/11 05:18:21;;;;;;;9.85;5.03;;;;;;;17.09;71.40;99233.97;5258828;28;20498;-71
2022/09/11 05:21:14;;;;;;;8.60;5.32;;;;;;;16.91;71.69;99234.28;5244653;28;20053;-71
2022/09/11 05:24:04;;;;;;;9.13;5.68;;;;;;;16.65;73.57;99235.44;5245296;28;20044;-70
2022/09/11 05:26:57;;;;;;;10.32;5.28;;;;;;;16.80;72.69;99234.69;5250979;28;20119;-71
2022/09/11 05:29:49;;;;;;;9.35;5.75;;;;;;;17.13;71.42;99238.78;5244085;28;20127;-71
2022/09/11 05:32:39;;;;;;;9.25;5.15;;;;;;;17.08;71.73;99248.38;5271597;28;20052;-70
2022/09/11 05:35:30;;;;;;;9.02;5.13;;;;;;;16.92;72.15;99252.03;5244165;28;20066;-71
2022/09/11 05:38:22;;;;;;;9.07;5.47;;;;;;;16.88;72.05;99256.88;5257526;28;20503;-71
2022/09/11 05:41:15;;;;;;;10.15;5.20;;;;;;;16.90;72.64;99260.22;5244282;28;20511;-71
2022/09/11 05:44:05;;;;;;;9.55;5.32;;;;;;;16.94;72.55;99251.84;5244031;28;20520;-71
2022/09/11 05:46:57;;;;;;;8.32;4.90;;;;;;;17.54;70.56;99273.28;5225963;28;20044;-71
2022/09/11 05:49:48;;;;;;;14.10;5.28;;;;;;;17.19;71.48;99268.56;5243789;28;20060;-71
2022/09/11 05:52:38;;;;;;;6.97;5.15;;;;;;;17.58;69.92;99271.91;5257834;28;20113;-71
2022/09/11 05:55:34;;;;;;;9.30;5.40;;;;;;;17.66;69.29;99262.94;5243940;28;20071;-71
2022/09/11 05:58:30;;;;;;;8.45;5.55;;;;;;;17.89;69.73;99278.19;5269868;28;20514;-71
2022/09/11 06:01:23;;;;;;;8.23;5.28;;;;;;;17.79;69.08;99287.31;5229207;28;20048;-71
2022/09/11 06:04:21;;;;;;;11.85;5.35;;;;;;;17.32;70.50;99263.44;5244338;28;20187;-71
2022/09/11 06:07:14;;;;;;;6.25;5.00;;;;;;;17.67;68.90;99279.88;5235820;28;20056;-71
2022/09/11 06:10:08;;;;;;;10.73;5.47;;;;;;;17.56;69.90;99302.59;5243269;28;20561;-71
2022/09/11 06:12:59;;;;;;;8.57;5.63;;;;;;;17.62;69.74;99301.88;5252821;28;20063;-71
2022/09/11 06:15:49;;;;;;;11.43;5.18;;;;;;;17.32;70.91;99315.19;5256588;28;20056;-71
2022/09/11 06:18:41;;;;;;;9.93;5.88;;;;;;;16.87;72.45;99306.09;5244547;28;20343;-71
2022/09/11 06:21:32;;;;;;;11.75;5.70;;;;;;;17.18;71.47;99305.22;5271709;28;20063;-71
2022/09/11 06:24:32;;;;;;;9.95;5.60;;;;;;;17.24;71.13;99304.53;5257580;28;20049;-71
2022/09/11 06:27:23;;;;;;;8.05;5.65;;;;;;;17.44;70.72;99325.47;5257159;28;20055;-71
2022/09/11 06:30:15;;;;;;;11.90;5.63;;;;;;;18.00;69.13;99328.69;5242446;28;20049;-71
2022/09/11 06:33:06;;;;;;;8.13;5.03;;;;;;;17.42;70.49;99331.03;5249972;28;20056;-74
2022/09/11 06:35:58;;;;;;;10.13;5.93;;;;;;;17.60;70.45;99326.19;5260165;28;20326;-72
2022/09/11 06:38:56;;;;;;;9.88;6.45;;;;;;;18.12;69.10;99337.97;5240744;28;20495;-71
2022/09/11 06:41:49;;;;;;;9.35;6.20;;;;;;;17.91;69.19;99335.16;5241827;28;20064;-70
2022/09/11 06:44:41;;;;;;;15.52;5.75;;;;;;;18.17;67.91;99340.91;5242479;28;20848;-70
2022/09/11 06:47:34;;;;;;;8.65;5.75;;;;;;;18.17;68.29;99346.28;5256726;28;20529;-70
2022/09/11 06:50:25;;;;;;;8.18;5.55;;;;;;;17.86;69.08;99349.13;5242081;28;20059;-70
2022/09/11 06:53:28;;;;;;;11.32;6.00;;;;;;;17.21;71.92;99344.25;5243369;28;20568;-70
2022/09/11 06:56:18;;;;;;;8.75;5.30;;;;;;;17.56;70.52;99345.50;5242247;28;20090;-70
2022/09/11 06:59:09;;;;;;;8.20;5.32;;;;;;;18.04;68.61;99325.44;5242588;28;20053;-70
2022/09/11 07:01:59;;;;;;;8.05;5.75;;;;;;;17.70;69.79;99336.66;5242142;28;20131;-71
2022/09/11 07:04:52;;;;;;;12.13;5.95;;;;;;;18.12;69.30;99343.34;5242993;28;20052;-70
2022/09/11 07:07:45;;;;;;;10.20;5.95;;;;;;;18.34;67.96;99346.09;5243198;28;20132;-70
2022/09/11 07:10:35;;;;;;;7.60;5.30;;;;;;;18.42;68.16;99348.72;5242275;28;20044;-70
2022/09/11 07:13:25;;;;;;;10.77;5.97;;;;;;;18.19;68.90;99341.56;5242736;28;20429;-70
2022/09/11 07:16:15;;;;;;;9.27;6.00;;;;;;;18.33;68.08;99347.13;5242186;28;20197;-69
2022/09/11 07:19:12;;;;;;;9.43;5.55;;;;;;;18.26;68.78;99339.81;5250866;28;20701;-70
2022/09/11 07:22:02;;;;;;;11.80;6.75;;;;;;;18.50;67.21;99330.63;5247712;28;20486;-70
2022/09/11 07:24:55;;;;;;;9.63;6.10;;;;;;;18.56;66.94;99350.53;5245737;28;20541;-69
2022/09/11 07:27:44;;;;;;;8.80;6.15;;;;;;;18.17;68.67;99348.13;5251662;28;20075;-69
2022/09/11 07:30:36;;;;;;;9.05;5.78;;;;;;;18.98;66.34;99349.84;5246771;28;20426;-71
2022/09/11 07:33:27;;;;;;;8.13;5.72;;;;;;;18.97;66.13;99352.72;5250484;28;20545;-71
2022/09/11 07:36:25;;;;;;;10.00;5.88;;;;;;;18.90;66.50;99355.31;5248072;28;20047;-73
2022/09/11 07:39:16;;;;;;;9.68;6.00;;;;;;;18.46;67.84;99344.63;5250688;28;20040;-70
2022/09/11 07:42:13;;;;;;;9.70;5.95;;;;;;;18.47;67.27;99357.03;5246292;28;20067;-70
2022/09/11 07:45:04;;;;;;;10.10;5.88;;;;;;;18.40;67.97;99362.31;5250461;28;20137;-71
2022/09/11 07:47:56;;;;;;;7.40;6.10;;;;;;;18.66;67.28;99363.69;5250749;28;20113;-70
2022/09/11 07:51:03;;;;;;;9.10;6.70;;;;;;;18.70;67.10;99373.84;5250190;28;20063;-70
2022/09/11 07:53:56;;;;;;;7.63;5.32;;;;;;;18.92;66.13;99382.03;5249171;28;20048;-70
2022/09/11 07:56:47;;;;;;;9.95;5.57;;;;;;;19.16;66.13;99379.00;5250948;28;20055;-70
2022/09/11 07:59:38;;;;;;;11.27;6.25;;;;;;;18.59;67.29;99386.94;5248789;28;20051;-70
2022/09/11 08:02:29;;;;;;;9.07;6.20;;;;;;;19.42;66.17;99383.81;5250990;28;20126;-70
2022/09/11 08:05:19;;;;;;;6.20;5.60;;;;;;;19.46;64.60;99379.72;5246416;28;20048;-71
2022/09/11 08:08:10;;;;;;;11.70;5.97;;;;;;;18.85;66.65;99381.13;5247574;28;20422;-70
2022/09/11 08:11:05;;;;;;;9.02;6.28;;;;;;;19.70;64.21;99385.75;5252579;28;20055;-70
2022/09/11 08:13:55;;;;;;;11.00;5.95;;;;;;;19.48;64.77;99383.06;5277149;28;20946;-70
2022/09/11 08:16:47;;;;;;;11.60;7.15;;;;;;;19.76;64.06;99378.78;5241777;28;20067;-71
2022/09/11 08:19:37;;;;;;;9.60;6.10;;;;;;;20.70;61.62;99375.75;5227638;28;20129;-71
2022/09/11 08:22:28;;;;;;;11.02;5.90;;;;;;;20.85;61.48;99389.91;5269683;28;20163;-71
2022/09/11 08:25:18;;;;;;;10.82;5.40;;;;;;;20.52;61.82;99390.56;5240479;28;20045;-70
2022/09/11 08:28:09;;;;;;;7.97;5.50;;;;;;;21.41;58.72;99392.41;5256050;28;20201;-71
2022/09/11 08:31:04;;;;;;;10.15;5.45;;;;;;;20.93;59.64;99391.59;5240196;28;20471;-71
2022/09/11 08:33:55;;;;;;;7.65;5.65;;;;;;;19.30;63.94;99389.88;5240635;28;20049;-71
2022/09/11 08:36:45;;;;;;;14.52;5.55;;;;;;;19.91;61.50;99393.00;5241999;28;20099;-71
2022/09/11 08:39:35;;;;;;;9.70;5.68;;;;;;;20.07;61.33;99395.41;5228374;28;20130;-71
2022/09/11 08:42:28;;;;;;;10.85;7.10;;;;;;;20.02;60.87;99389.78;5218329;28;20053;-73
2022/09/11 08:45:22;;;;;;;9.35;5.93;;;;;;;20.22;61.41;99394.47;5239785;28;20046;-74
2022/09/11 08:48:13;;;;;;;12.48;6.32;;;;;;;21.69;57.83;99396.78;5255963;28;20056;-71
2022/09/11 08:51:03;;;;;;;10.70;6.72;;;;;;;21.12;59.03;99396.22;5240894;28;20066;-72
2022/09/11 08:53:55;;;;;;;9.10;6.80;;;;;;;20.51;57.47;99394.28;5241420;28;20059;-72
2022/09/11 08:56:48;;;;;;;9.68;6.78;;;;;;;20.49;57.39;99392.78;5242239;28;20059;-72
2022/09/11 09:00:13;;;;;;;9.20;6.10;;;;;;;20.75;55.62;99390.25;5227598;28;20055;-71
2022/09/11 09:03:37;;;;;;;7.50;5.88;;;;;;;21.63;53.93;99403.03;5254065;28;20063;-71
2022/09/11 09:06:47;;;;;;;8.52;6.05;;;;;;;21.72;54.07;99412.56;5243480;28;20417;-73
2022/09/11 09:09:55;;;;;;;5.93;5.10;;;;;;;21.67;52.79;99406.97;5264814;28;20051;-71
2022/09/11 09:13:14;;;;;;;8.65;5.68;;;;;;;20.82;54.75;99409.97;5257795;28;20049;-71
2022/09/11 09:16:50;;;;;;;7.18;5.57;;;;;;;22.82;51.58;99408.34;5244261;28;20115;-71
2022/09/11 09:19:54;;;;;;;6.85;5.40;;;;;;;23.25;51.54;99406.97;5168291;28;20053;-71
2022/09/11 09:22:56;;;;;;;6.50;4.78;;;;;;;23.28;51.87;99412.78;5257824;28;20550;-72
2022/09/11 09:25:51;;;;;;;9.70;5.15;;;;;;;22.21;53.95;99412.19;5250682;28;20071;-71
2022/09/11 09:28:49;;;;;;;6.97;5.07;;;;;;;21.53;55.66;99419.63;5253015;28;20055;-72
2022/09/11 09:31:43;;;;;;;6.18;4.22;;;;;;;23.11;53.53;99411.59;5251537;28;20071;-71
2022/09/11 09:34:37;;;;;;;4.90;4.38;;;;;;;21.58;54.54;99412.56;5248899;28;20652;-71
2022/09/11 09:37:29;;;;;;;6.07;5.00;;;;;;;21.09;54.95;99413.66;5253122;28;20048;-71
2022/09/11 09:40:24;;;;;;;6.45;5.13;;;;;;;22.51;52.57;99412.56;5280152;27;20063;-70
2022/09/11 09:43:29;;;;;;;8.95;5.65;;;;;;;21.26;54.71;99413.28;5265338;28;20058;-71
2022/09/11 09:46:26;;;;;;;8.03;6.20;;;;;;;22.56;54.47;99405.72;5254627;28;20055;-71
2022/09/11 09:49:33;;;;;;;6.35;5.68;;;;;;;22.95;50.86;99405.63;5254864;28;20280;-69
2022/09/11 09:52:33;;;;;;;6.47;5.28;;;;;;;23.72;49.09;99407.53;5249562;28;20055;-69
2022/09/11 09:55:24;;;;;;;7.15;5.88;;;;;;;25.03;47.79;99417.31;5252066;28;20477;-71
2022/09/11 09:58:14;;;;;;;7.38;5.93;;;;;;;24.85;45.95;99410.88;5244260;28;20233;-71
2022/09/11 10:01:42;;;;;;;7.25;4.72;;;;;;;23.42;49.64;99403.53;5243802;28;20052;-71
2022/09/11 10:04:33;;;;;;;7.45;5.03;;;;;;;23.34;49.01;99400.22;5239482;28;20052;-69
2022/09/11 10:07:23;;;;;;;6.97;4.28;;;;;;;23.04;50.53;99410.78;5258177;28;20091;-73
2022/09/11 10:10:25;;;;;;;7.75;5.20;;;;;;;21.73;54.00;99408.84;5245769;28;20060;-70
2022/09/11 10:13:23;;;;;;;6.18;5.07;;;;;;;21.41;53.81;99403.19;5241527;28;20050;-70
2022/09/11 10:16:25;;;;;;;10.77;5.55;;;;;;;20.74;55.43;99410.16;5250356;28;20562;-69
2022/09/11 10:19:42;;;;;;;8.77;5.72;;;;;;;20.81;57.00;99423.69;5258646;28;20415;-72
2022/09/11 10:22:32;;;;;;;6.05;5.22;;;;;;;20.93;57.06;99427.47;5238067;28;20044;-71
2022/09/11 10:25:25;;;;;;;6.28;5.30;;;;;;;20.88;56.52;99408.38;5242829;28;20041;-72
2022/09/11 10:28:20;;;;;;;9.02;5.85;;;;;;;22.61;53.71;99419.41;5243778;28;20053;-72
2022/09/11 10:31:12;;;;;;;;;;;;;;;23.61;49.42;99411.75;5244667;28;20052;-72
2022/09/11 10:34:03;;;;;;;6.00;5.10;;;;;;;23.91;48.93;99395.72;5243898;28;19920;-72
2022/09/11 10:36:59;;;;;;;7.47;4.65;;;;;;;22.85;49.67;99402.53;5257574;28;20052;-71
2022/09/11 10:39:50;;;;;;;9.40;5.15;;;;;;;23.34;49.38;99402.94;5244207;28;20067;-71
2022/09/11 10:42:41;;;;;;;5.28;4.28;;;;;;;23.27;50.26;99407.56;5243381;28;20060;-71
2022/09/11 10:45:32;;;;;;;11.88;5.32;;;;;;;21.82;52.71;99410.31;5244290;28;20051;-69
2022/09/11 10:48:22;;;;;;;7.72;5.30;;;;;;;21.56;53.69;99393.06;5254262;28;20063;-70
2022/09/11 10:51:12;;;;;;;8.77;4.90;;;;;;;21.99;53.71;99413.44;5244288;28;20052;-71
2022/09/11 10:54:07;;;;;;;6.07;4.30;;;;;;;21.34;53.13;99397.78;5269507;28;20051;-70
2022/09/11 10:57:12;;;;;;;5.70;4.70;;;;;;;20.50;54.50;99410.63;5253643;28;20055;-70
2022/09/11 11:00:11;;;;;;;6.25;4.60;;;;;;;21.06;54.27;99408.66;5248491;28;20510;-70
2022/09/11 11:03:11;;;;;;;6.10;4.47;;;;;;;21.65;53.04;99403.63;5251542;28;20180;-70
2022/09/11 11:06:24;;;;;;;6.97;5.07;;;;;;;21.97;52.44;99408.25;5248351;28;20472;-70
2022/09/11 11:09:23;;;;;;;5.90;4.50;;;;;;;22.31;50.74;99400.16;5252946;28;20051;-70
2022/09/11 11:12:39;;;;;;;7.70;6.00;;;;;;;22.19;50.99;99391.88;5247517;28;20139;-69
2022/09/11 11:15:47;;;;;;;6.47;5.15;;;;;;;22.33;51.79;99398.91;5249265;28;20063;-70
2022/09/11 11:19:02;;;;;;;6.63;5.55;;;;;;;22.13;51.43;99404.28;5251198;28;20052;-71
2022/09/11 11:22:05;;;;;;;8.82;6.28;;;;;;;22.61;51.68;99389.69;5242663;28;20079;-70
2022/09/11 11:25:17;;;;;;;8.55;6.55;;;;;;;23.41;50.53;99396.47;5242001;28;20052;-69
2022/09/11 11:28:27;;;;;;;8.25;5.95;;;;;;;22.75;50.95;99396.75;5244002;28;20178;-70
2022/09/11 11:31:36;;;;;;;7.25;5.88;;;;;;;23.49;50.71;99378.31;5242938;28;20052;-70
2022/09/11 11:34:38;;;;;;;6.45;5.18;;;;;;;23.76;49.53;99389.78;5250064;28;20130;-70
2022/09/11 11:37:35;;;;;;;5.72;5.13;;;;;;;23.08;49.25;99393.06;5249203;28;20076;-72
2022/09/11 11:40:35;;;;;;;8.27;5.43;;;;;;;24.01;48.87;99395.25;5250385;28;20521;-70
2022/09/11 11:43:31;;;;;;;6.60;5.10;;;;;;;24.19;47.17;99397.16;5248611;28;20104;-73
2022/09/11 11:46:28;;;;;;;5.45;4.95;;;;;;;24.68;45.83;99390.84;5251445;28;20052;-72
2022/09/11 11:50:03;;;;;;;7.38;4.75;;;;;;;23.75;47.48;99390.84;5254251;28;20422;-74
2022/09/11 11:53:11;;;;;;;6.28;4.63;;;;;;;24.47;47.63;99399.41;5235849;28;20733;-72
2022/09/11 11:56:19;;;;;;;5.45;4.72;;;;;;;24.72;45.14;99396.63;5242701;28;20052;-72
2022/09/11 11:59:32;;;;;;;7.03;5.22;;;;;;;24.47;46.34;99391.25;5242951;28;20059;-72
2022/09/11 12:02:29;;;;;;;7.07;4.93;;;;;;;23.67;46.71;99389.19;5227301;28;20125;-72
2022/09/11 12:05:24;;;;;;;6.85;4.70;;;;;;;24.33;46.78;99388.66;5243416;28;20274;-72
2022/09/11 12:08:15;;;;;;;5.88;4.63;;;;;;;23.85;46.68;99380.34;5243392;28;20045;-72
2022/09/11 12:11:06;;;;;;;4.78;3.80;;;;;;;23.96;46.33;99378.81;5242874;28;20048;-72
2022/09/11 12:13:58;;;;;;;5.78;4.78;;;;;;;23.63;46.62;99372.56;5241815;28;20041;-72
2022/09/11 12:16:48;;;;;;;14.73;4.72;;;;;;;23.42;46.82;99392.69;5231799;28;20087;-72
2022/09/11 12:20:10;;;;;;;8.70;5.15;;;;;;;22.40;49.56;99393.50;5243597;28;20060;-72
2022/09/11 12:23:00;;;;;;;5.88;4.65;;;;;;;22.63;49.19;99395.72;5235882;28;20102;-72
2022/09/11 12:26:16;;;;;;;7.10;4.90;;;;;;;22.45;50.13;99390.97;5243183;28;20122;-73
2022/09/11 12:29:13;;;;;;;9.77;4.95;;;;;;;22.31;50.73;99389.34;5242869;28;20162;-74
2022/09/11 12:32:03;;;;;;;7.90;5.00;;;;;;;22.72;50.42;99397.16;5241353;28;20063;-71
2022/09/11 12:34:53;;;;;;;7.70;5.15;;;;;;;22.22;52.62;99392.28;5242094;28;20094;-73
2022/09/11 12:37:49;;;;;;;5.82;4.75;;;;;;;22.35;52.54;99396.84;5248603;28;20421;-73
2022/09/11 12:41:06;;;;;;;6.75;5.28;;;;;;;22.01;53.13;99395.97;5248146;28;20529;-73
2022/09/11 12:43:56;;;;;;;7.55;5.28;;;;;;;22.31;53.42;99397.44;5253540;28;20067;-73
2022/09/11 12:46:46;;;;;;;5.68;5.18;;;;;;;22.40;52.64;99398.91;5251660;28;20510;-73
2022/09/11 12:49:38;;;;;;;5.90;5.30;;;;;;;22.34;52.97;99399.72;5257901;28;20069;-74
2022/09/11 12:52:38;;;;;;;5.75;5.05;;;;;;;22.44;53.41;99394.72;5251298;28;20043;-74
2022/09/11 12:55:34;;;;;;;7.15;5.25;;;;;;;21.47;54.12;99401.53;5252407;28;20077;-74
2022/09/11 12:58:32;;;;;;;7.22;5.60;;;;;;;22.46;53.39;99404.28;5248364;28;20537;-73
2022/09/11 13:01:29;;;;;;;8.07;5.50;;;;;;;22.19;51.24;99390.00;5248847;28;20452;-72
2022/09/11 13:04:22;;;;;;;9.48;5.70;;;;;;;21.91;52.83;99379.38;5259268;28;20440;-73
2022/09/11 13:07:28;;;;;;;8.13;5.53;;;;;;;21.88;52.13;99370.84;5247543;28;20055;-73
2022/09/11 13:10:39;;;;;;;7.30;5.78;;;;;;;22.27;51.47;99380.81;5254394;28;20422;-72
2022/09/11 13:13:43;;;;;;;7.28;5.20;;;;;;;22.06;52.71;99387.28;5245566;28;20122;-71
2022/09/11 13:16:33;;;;;;;7.63;5.25;;;;;;;22.27;50.06;99380.81;5245511;28;20230;-72
2022/09/11 13:19:32;;;;;;;6.93;5.00;;;;;;;22.77;49.51;99375.72;5250465;28;20501;-74
2022/09/11 13:22:27;;;;;;;12.10;5.07;;;;;;;21.89;49.58;99373.38;5256179;28;20048;-71
2022/09/11 13:25:25;;;;;;;7.32;4.35;;;;;;;22.44;48.78;99373.94;5247602;28;20051;-71
2022/09/11 13:28:15;;;;;;;7.65;5.47;;;;;;;22.94;48.56;99368.78;5253982;28;20422;-73
2022/09/11 13:31:18;;;;;;;5.05;4.55;;;;;;;22.50;47.64;99367.69;5258779;28;20592;-73
2022/09/11 13:34:15;;;;;;;4.55;4.15;;;;;;;23.01;48.06;99371.47;5246418;28;20052;-73
2022/09/11 13:37:14;;;;;;;4.72;4.30;;;;;;;23.17;48.22;99362.84;5257474;28;20460;-72
2022/09/11 13:40:06;;;;;;;8.75;4.80;;;;;;;23.20;47.37;99367.00;5255785;28;20071;-71
2022/09/11 13:42:59;;;;;;;6.30;5.03;;;;;;;22.91;49.07;99365.66;5245736;28;20137;-72
2022/09/11 13:46:08;;;;;;;9.63;5.20;;;;;;;23.12;47.86;99359.16;5246466;28;20051;-72